sensor_id;sensor_type;location;lat;lon;timestamp;temperature;humidity
63802;DHT22;49949;43.060;25.624;2022-12-13T00:01:35;1.50;99.90
63802;DHT22;49949;43.060;25.624;2022-12-13T00:04:03;1.50;99.90
63802;DHT22;49949;43.060;25.624;2022-12-13T00:06:30;1.40;99.90
63802;DHT22;49949;43.060;25.624;2022-12-13T00:08:56;1.40;99.90
63802;DHT22;49949;43.060;25.624;2022-12-13T00:11:22;1.30;99.90
63802;DHT22;49949;43.060;25.624;2022-12-13T00:13:48;1.20;99.90
63802;DHT22;49949;43.060;25.624;2022-12-13T00:16:16;1.30;99.90
63802;DHT22;49949;43.060;25.624;2022-12-13T00:18:45;1.20;99.90
63802;DHT22;49949;43.060;25.624;2022-12-13T00:21:14;1.30;99.90
63802;DHT22;49949;43.060;25.624;2022-12-13T00:23:40;1.20;99.90
63802;DHT22;49949;43.060;25.624;2022-12-13T00:26:10;1.20;99.90
63802;DHT22;49949;43.060;25.624;2022-12-13T00:28:37;1.20;99.90
63802;DHT22;49949;43.060;25.624;2022-12-13T00:31:03;1.10;99.90
63802;DHT22;49949;43.060;25.624;2022-12-13T00:33:29;1.10;99.90
63802;DHT22;49949;43.060;25.624;2022-12-13T00:35:55;1.10;99.90
63802;DHT22;49949;43.060;25.624;2022-12-13T00:38:21;1.10;99.90
63802;DHT22;49949;43.060;25.624;2022-12-13T00:40:47;1.10;99.90
63802;DHT22;49949;43.060;25.624;2022-12-13T00:43:13;1.10;99.90
63802;DHT22;49949;43.060;25.624;2022-12-13T00:45:39;1.10;99.90
63802;DHT22;49949;43.060;25.624;2022-12-13T00:48:05;1.20;99.90
63802;DHT22;49949;43.060;25.624;2022-12-13T00:50:32;1.20;99.90
63802;DHT22;49949;43.060;25.624;2022-12-13T00:52:59;1.10;99.90
63802;DHT22;49949;43.060;25.624;2022-12-13T00:55:24;1.10;99.90
63802;DHT22;49949;43.060;25.624;2022-12-13T00:57:50;1.00;99.90
63802;DHT22;49949;43.060;25.624;2022-12-13T01:00:16;1.00;99.90
63802;DHT22;49949;43.060;25.624;2022-12-13T01:02:42;1.10;99.90
63802;DHT22;49949;43.060;25.624;2022-12-13T01:05:09;1.10;99.90
63802;DHT22;49949;43.060;25.624;2022-12-13T01:07:36;1.10;99.90
63802;DHT22;49949;43.060;25.624;2022-12-13T01:10:03;1.10;99.90
63802;DHT22;49949;43.060;25.624;2022-12-13T01:12:28;1.10;99.90
63802;DHT22;49949;43.060;25.624;2022-12-13T01:14:54;1.10;99.90
63802;DHT22;49949;43.060;25.624;2022-12-13T01:17:20;1.10;99.90
63802;DHT22;49949;43.060;25.624;2022-12-13T01:19:45;1.00;99.90
63802;DHT22;49949;43.060;25.624;2022-12-13T01:22:11;1.00;99.90
63802;DHT22;49949;43.060;25.624;2022-12-13T01:24:37;1.10;99.90
63802;DHT22;49949;43.060;25.624;2022-12-13T01:27:03;1.10;99.90
63802;DHT22;49949;43.060;25.624;2022-12-13T01:29:29;1.10;99.90
63802;DHT22;49949;43.060;25.624;2022-12-13T01:31:55;1.10;99.90
63802;DHT22;49949;43.060;25.624;2022-12-13T01:34:22;1.10;99.90
63802;DHT22;49949;43.060;25.624;2022-12-13T01:36:48;1.10;99.90
63802;DHT22;49949;43.060;25.624;2022-12-13T01:39:16;1.10;99.90
63802;DHT22;49949;43.060;25.624;2022-12-13T01:41:46;1.00;99.90
63802;DHT22;49949;43.060;25.624;2022-12-13T01:47:18;1.10;99.90
63802;DHT22;49949;43.060;25.624;2022-12-13T01:49:45;1.00;99.90
63802;DHT22;49949;43.060;25.624;2022-12-13T01:52:12;1.10;99.90
63802;DHT22;49949;43.060;25.624;2022-12-13T01:54:44;1.00;99.90
63802;DHT22;49949;43.060;25.624;2022-12-13T01:57:11;1.00;99.90
63802;DHT22;49949;43.060;25.624;2022-12-13T01:59:39;1.10;99.90
63802;DHT22;49949;43.060;25.624;2022-12-13T02:02:06;1.00;99.90
63802;DHT22;49949;43.060;25.624;2022-12-13T02:04:43;1.10;99.90
63802;DHT22;49949;43.060;25.624;2022-12-13T02:07:13;1.00;99.90
63802;DHT22;49949;43.060;25.624;2022-12-13T02:09:40;1.10;99.90
63802;DHT22;49949;43.060;25.624;2022-12-13T02:12:06;1.10;99.90
63802;DHT22;49949;43.060;25.624;2022-12-13T02:14:34;1.10;99.90
63802;DHT22;49949;43.060;25.624;2022-12-13T02:31:35;1.00;99.90
63802;DHT22;49949;43.060;25.624;2022-12-13T02:34:08;1.00;99.90
63802;DHT22;49949;43.060;25.624;2022-12-13T02:39:20;0.90;99.90
63802;DHT22;49949;43.060;25.624;2022-12-13T02:44:18;0.90;99.90
63802;DHT22;49949;43.060;25.624;2022-12-13T02:46:52;0.90;99.90
63802;DHT22;49949;43.060;25.624;2022-12-13T02:49:22;0.90;99.90
63802;DHT22;49949;43.060;25.624;2022-12-13T02:51:51;0.90;99.90
63802;DHT22;49949;43.060;25.624;2022-12-13T02:54:17;0.90;99.90
63802;DHT22;49949;43.060;25.624;2022-12-13T02:56:53;0.80;99.90
63802;DHT22;49949;43.060;25.624;2022-12-13T02:59:19;0.80;99.90
63802;DHT22;49949;43.060;25.624;2022-12-13T03:04:58;0.90;99.90
63802;DHT22;49949;43.060;25.624;2022-12-13T03:08:02;0.80;99.90
63802;DHT22;49949;43.060;25.624;2022-12-13T03:10:42;0.80;99.90
63802;DHT22;49949;43.060;25.624;2022-12-13T03:13:15;0.80;99.90
63802;DHT22;49949;43.060;25.624;2022-12-13T03:16:17;0.70;99.90
63802;DHT22;49949;43.060;25.624;2022-12-13T03:18:46;0.60;99.90
63802;DHT22;49949;43.060;25.624;2022-12-13T03:21:12;0.60;99.90
63802;DHT22;49949;43.060;25.624;2022-12-13T03:23:38;0.60;99.90
63802;DHT22;49949;43.060;25.624;2022-12-13T03:26:10;0.70;99.90
63802;DHT22;49949;43.060;25.624;2022-12-13T03:28:38;0.70;99.90
63802;DHT22;49949;43.060;25.624;2022-12-13T03:31:04;0.60;99.90
63802;DHT22;49949;43.060;25.624;2022-12-13T03:33:30;0.60;99.90
63802;DHT22;49949;43.060;25.624;2022-12-13T03:35:56;0.60;99.90
63802;DHT22;49949;43.060;25.624;2022-12-13T03:38:22;0.50;99.90
63802;DHT22;49949;43.060;25.624;2022-12-13T03:40:56;0.50;99.90
63802;DHT22;49949;43.060;25.624;2022-12-13T03:43:23;0.40;99.90
63802;DHT22;49949;43.060;25.624;2022-12-13T03:45:50;0.40;99.90
63802;DHT22;49949;43.060;25.624;2022-12-13T03:48:16;0.50;99.90
63802;DHT22;49949;43.060;25.624;2022-12-13T03:50:42;0.50;99.90
63802;DHT22;49949;43.060;25.624;2022-12-13T03:53:07;0.40;99.90
63802;DHT22;49949;43.060;25.624;2022-12-13T03:55:33;0.40;99.90
63802;DHT22;49949;43.060;25.624;2022-12-13T03:57:59;0.30;99.90
63802;DHT22;49949;43.060;25.624;2022-12-13T04:00:25;0.30;99.90
63802;DHT22;49949;43.060;25.624;2022-12-13T04:02:50;0.30;99.90
63802;DHT22;49949;43.060;25.624;2022-12-13T04:05:16;0.40;99.90
63802;DHT22;49949;43.060;25.624;2022-12-13T04:07:42;0.40;99.90
63802;DHT22;49949;43.060;25.624;2022-12-13T04:10:08;0.40;99.90
63802;DHT22;49949;43.060;25.624;2022-12-13T04:12:33;0.40;99.90
63802;DHT22;49949;43.060;25.624;2022-12-13T04:15:18;0.30;99.90
63802;DHT22;49949;43.060;25.624;2022-12-13T04:17:43;0.20;99.90
63802;DHT22;49949;43.060;25.624;2022-12-13T04:20:09;0.20;99.90
63802;DHT22;49949;43.060;25.624;2022-12-13T04:22:35;0.20;99.90
63802;DHT22;49949;43.060;25.624;2022-12-13T04:25:01;0.30;99.90
63802;DHT22;49949;43.060;25.624;2022-12-13T04:27:27;0.20;99.90
63802;DHT22;49949;43.060;25.624;2022-12-13T04:29:53;0.20;99.90
63802;DHT22;49949;43.060;25.624;2022-12-13T04:32:18;0.20;99.90
63802;DHT22;49949;43.060;25.624;2022-12-13T04:34:44;0.10;99.90
63802;DHT22;49949;43.060;25.624;2022-12-13T04:37:10;0.10;99.90
63802;DHT22;49949;43.060;25.624;2022-12-13T04:39:35;0.10;99.90
63802;DHT22;49949;43.060;25.624;2022-12-13T04:42:02;0.10;99.90
63802;DHT22;49949;43.060;25.624;2022-12-13T04:44:29;0.00;99.90
63802;DHT22;49949;43.060;25.624;2022-12-13T04:46:55;0.00;99.90
63802;DHT22;49949;43.060;25.624;2022-12-13T04:49:21;-0.20;99.90
63802;DHT22;49949;43.060;25.624;2022-12-13T04:51:47;-0.20;99.90
63802;DHT22;49949;43.060;25.624;2022-12-13T04:54:12;-0.20;99.90
63802;DHT22;49949;43.060;25.624;2022-12-13T04:56:38;-0.20;99.90
63802;DHT22;49949;43.060;25.624;2022-12-13T04:59:04;-0.20;99.90
63802;DHT22;49949;43.060;25.624;2022-12-13T05:01:29;-0.20;99.90
63802;DHT22;49949;43.060;25.624;2022-12-13T05:03:55;-0.30;99.90
63802;DHT22;49949;43.060;25.624;2022-12-13T05:06:21;-0.30;99.90
63802;DHT22;49949;43.060;25.624;2022-12-13T05:08:47;-0.30;99.90
63802;DHT22;49949;43.060;25.624;2022-12-13T05:11:12;-0.30;99.90
63802;DHT22;49949;43.060;25.624;2022-12-13T05:13:38;-0.40;99.90
63802;DHT22;49949;43.060;25.624;2022-12-13T05:16:06;-0.40;99.90
63802;DHT22;49949;43.060;25.624;2022-12-13T05:18:33;-0.50;99.90
63802;DHT22;49949;43.060;25.624;2022-12-13T05:21:03;-0.50;99.90
63802;DHT22;49949;43.060;25.624;2022-12-13T05:23:30;-0.60;99.90
63802;DHT22;49949;43.060;25.624;2022-12-13T05:25:55;-0.70;99.90
63802;DHT22;49949;43.060;25.624;2022-12-13T05:28:21;-0.70;99.90
63802;DHT22;49949;43.060;25.624;2022-12-13T05:30:50;-0.80;99.90
63802;DHT22;49949;43.060;25.624;2022-12-13T05:33:15;-0.70;99.90
63802;DHT22;49949;43.060;25.624;2022-12-13T05:35:41;-0.70;99.90
63802;DHT22;49949;43.060;25.624;2022-12-13T05:38:06;-0.80;99.90
63802;DHT22;49949;43.060;25.624;2022-12-13T05:40:32;-0.80;99.90
63802;DHT22;49949;43.060;25.624;2022-12-13T05:42:58;-0.80;99.90
63802;DHT22;49949;43.060;25.624;2022-12-13T05:45:25;-0.90;99.90
63802;DHT22;49949;43.060;25.624;2022-12-13T05:47:50;-0.90;99.90
63802;DHT22;49949;43.060;25.624;2022-12-13T05:50:16;-0.90;99.90
63802;DHT22;49949;43.060;25.624;2022-12-13T05:52:43;-0.90;99.90
63802;DHT22;49949;43.060;25.624;2022-12-13T05:55:09;-1.00;99.90
63802;DHT22;49949;43.060;25.624;2022-12-13T05:57:35;-1.10;99.90
63802;DHT22;49949;43.060;25.624;2022-12-13T06:00:02;-1.10;99.90
63802;DHT22;49949;43.060;25.624;2022-12-13T06:02:28;-1.00;99.90
63802;DHT22;49949;43.060;25.624;2022-12-13T06:04:54;-1.00;99.90
63802;DHT22;49949;43.060;25.624;2022-12-13T06:07:19;-0.90;99.90
63802;DHT22;49949;43.060;25.624;2022-12-13T06:09:45;-0.90;99.90
63802;DHT22;49949;43.060;25.624;2022-12-13T06:12:11;-0.90;99.90
63802;DHT22;49949;43.060;25.624;2022-12-13T06:14:36;-0.90;99.90
63802;DHT22;49949;43.060;25.624;2022-12-13T06:17:02;-0.80;99.90
63802;DHT22;49949;43.060;25.624;2022-12-13T06:19:28;-0.80;99.90
63802;DHT22;49949;43.060;25.624;2022-12-13T06:21:54;-0.80;99.90
63802;DHT22;49949;43.060;25.624;2022-12-13T06:24:21;-0.90;99.90
63802;DHT22;49949;43.060;25.624;2022-12-13T06:26:49;-0.90;99.90
63802;DHT22;49949;43.060;25.624;2022-12-13T06:29:16;-1.00;99.90
63802;DHT22;49949;43.060;25.624;2022-12-13T06:31:42;-1.00;99.90
63802;DHT22;49949;43.060;25.624;2022-12-13T06:34:08;-1.10;99.90
63802;DHT22;49949;43.060;25.624;2022-12-13T06:36:34;-1.20;99.90
63802;DHT22;49949;43.060;25.624;2022-12-13T06:39:04;-1.20;99.90
63802;DHT22;49949;43.060;25.624;2022-12-13T06:41:30;-1.20;99.90
63802;DHT22;49949;43.060;25.624;2022-12-13T06:43:56;-1.20;99.90
63802;DHT22;49949;43.060;25.624;2022-12-13T06:46:22;-1.30;99.90
63802;DHT22;49949;43.060;25.624;2022-12-13T06:48:48;-1.30;99.90
63802;DHT22;49949;43.060;25.624;2022-12-13T06:51:14;-1.30;99.90
63802;DHT22;49949;43.060;25.624;2022-12-13T06:53:41;-1.20;99.90
63802;DHT22;49949;43.060;25.624;2022-12-13T06:56:09;-1.20;99.90
63802;DHT22;49949;43.060;25.624;2022-12-13T06:58:35;-1.20;99.90
63802;DHT22;49949;43.060;25.624;2022-12-13T07:01:13;-1.10;99.90
63802;DHT22;49949;43.060;25.624;2022-12-13T07:03:39;-1.00;99.90
63802;DHT22;49949;43.060;25.624;2022-12-13T07:08:33;-0.80;99.90
63802;DHT22;49949;43.060;25.624;2022-12-13T07:11:00;-0.70;99.90
63802;DHT22;49949;43.060;25.624;2022-12-13T07:13:26;-0.60;99.90
63802;DHT22;49949;43.060;25.624;2022-12-13T07:15:52;-0.50;99.90
63802;DHT22;49949;43.060;25.624;2022-12-13T07:18:17;-0.50;99.90
63802;DHT22;49949;43.060;25.624;2022-12-13T07:20:43;-0.40;99.90
63802;DHT22;49949;43.060;25.624;2022-12-13T07:23:10;-0.40;99.90
63802;DHT22;49949;43.060;25.624;2022-12-13T07:25:36;-0.30;99.90
63802;DHT22;49949;43.060;25.624;2022-12-13T07:28:07;-0.20;99.90
63802;DHT22;49949;43.060;25.624;2022-12-13T07:30:36;0.00;99.90
63802;DHT22;49949;43.060;25.624;2022-12-13T07:33:02;0.10;99.90
63802;DHT22;49949;43.060;25.624;2022-12-13T07:35:29;0.30;99.90
63802;DHT22;49949;43.060;25.624;2022-12-13T07:37:55;0.40;99.90
63802;DHT22;49949;43.060;25.624;2022-12-13T07:40:21;0.60;99.90
63802;DHT22;49949;43.060;25.624;2022-12-13T07:42:53;0.70;99.90
63802;DHT22;49949;43.060;25.624;2022-12-13T07:45:20;0.80;99.90
63802;DHT22;49949;43.060;25.624;2022-12-13T07:47:46;0.80;99.90
63802;DHT22;49949;43.060;25.624;2022-12-13T07:50:12;0.80;99.90
63802;DHT22;49949;43.060;25.624;2022-12-13T07:52:38;0.80;99.90
63802;DHT22;49949;43.060;25.624;2022-12-13T07:55:05;0.90;99.90
63802;DHT22;49949;43.060;25.624;2022-12-13T07:57:32;1.10;99.90
63802;DHT22;49949;43.060;25.624;2022-12-13T07:59:57;1.20;99.90
63802;DHT22;49949;43.060;25.624;2022-12-13T08:02:23;1.30;99.90
63802;DHT22;49949;43.060;25.624;2022-12-13T08:04:49;1.50;99.90
63802;DHT22;49949;43.060;25.624;2022-12-13T08:07:15;1.50;99.90
63802;DHT22;49949;43.060;25.624;2022-12-13T08:09:41;1.70;99.90
63802;DHT22;49949;43.060;25.624;2022-12-13T08:12:06;1.70;99.90
63802;DHT22;49949;43.060;25.624;2022-12-13T08:14:32;1.70;99.90
63802;DHT22;49949;43.060;25.624;2022-12-13T08:16:58;1.70;99.90
63802;DHT22;49949;43.060;25.624;2022-12-13T08:19:24;1.70;99.90
63802;DHT22;49949;43.060;25.624;2022-12-13T08:21:49;1.80;99.90
63802;DHT22;49949;43.060;25.624;2022-12-13T08:24:18;1.90;99.90
63802;DHT22;49949;43.060;25.624;2022-12-13T08:26:44;2.00;99.90
63802;DHT22;49949;43.060;25.624;2022-12-13T08:29:13;2.00;99.90
63802;DHT22;49949;43.060;25.624;2022-12-13T08:31:38;1.70;99.90
63802;DHT22;49949;43.060;25.624;2022-12-13T08:34:04;1.70;99.90
63802;DHT22;49949;43.060;25.624;2022-12-13T08:36:30;1.70;99.90
63802;DHT22;49949;43.060;25.624;2022-12-13T08:38:56;1.70;99.90
63802;DHT22;49949;43.060;25.624;2022-12-13T08:41:23;1.60;99.90
63802;DHT22;49949;43.060;25.624;2022-12-13T08:43:48;1.60;99.90
63802;DHT22;49949;43.060;25.624;2022-12-13T08:46:14;1.70;99.90
63802;DHT22;49949;43.060;25.624;2022-12-13T08:48:40;1.80;99.90
63802;DHT22;49949;43.060;25.624;2022-12-13T08:51:08;1.90;99.90
63802;DHT22;49949;43.060;25.624;2022-12-13T08:53:35;2.00;99.90
63802;DHT22;49949;43.060;25.624;2022-12-13T08:56:03;2.10;99.90
63802;DHT22;49949;43.060;25.624;2022-12-13T08:58:29;2.10;99.90
63802;DHT22;49949;43.060;25.624;2022-12-13T09:00:56;2.00;99.90
63802;DHT22;49949;43.060;25.624;2022-12-13T09:03:22;2.00;99.90
63802;DHT22;49949;43.060;25.624;2022-12-13T09:05:48;2.00;99.90
63802;DHT22;49949;43.060;25.624;2022-12-13T09:08:13;2.00;99.90
63802;DHT22;49949;43.060;25.624;2022-12-13T09:10:39;2.50;99.90
63802;DHT22;49949;43.060;25.624;2022-12-13T09:13:05;3.30;99.90
63802;DHT22;49949;43.060;25.624;2022-12-13T09:15:31;3.80;99.90
63802;DHT22;49949;43.060;25.624;2022-12-13T09:17:57;3.70;99.90
63802;DHT22;49949;43.060;25.624;2022-12-13T09:20:23;4.60;99.90
63802;DHT22;49949;43.060;25.624;2022-12-13T09:22:49;5.20;99.90
63802;DHT22;49949;43.060;25.624;2022-12-13T09:25:15;6.70;99.80
63802;DHT22;49949;43.060;25.624;2022-12-13T09:27:41;8.20;92.00
63802;DHT22;49949;43.060;25.624;2022-12-13T09:30:08;8.40;79.90
63802;DHT22;49949;43.060;25.624;2022-12-13T09:32:41;7.00;88.60
63802;DHT22;49949;43.060;25.624;2022-12-13T09:35:13;5.80;94.50
63802;DHT22;49949;43.060;25.624;2022-12-13T09:37:39;5.40;99.90
63802;DHT22;49949;43.060;25.624;2022-12-13T09:40:05;5.00;99.90
63802;DHT22;49949;43.060;25.624;2022-12-13T09:42:32;4.50;99.90
63802;DHT22;49949;43.060;25.624;2022-12-13T09:45:02;4.20;99.90
63802;DHT22;49949;43.060;25.624;2022-12-13T09:47:35;3.90;99.90
63802;DHT22;49949;43.060;25.624;2022-12-13T09:50:11;3.80;99.90
63802;DHT22;49949;43.060;25.624;2022-12-13T09:52:40;3.70;99.90
63802;DHT22;49949;43.060;25.624;2022-12-13T09:55:22;3.70;99.90
63802;DHT22;49949;43.060;25.624;2022-12-13T09:57:49;3.80;99.90
63802;DHT22;49949;43.060;25.624;2022-12-13T10:00:19;3.70;99.90
63802;DHT22;49949;43.060;25.624;2022-12-13T10:02:50;3.70;99.90
63802;DHT22;49949;43.060;25.624;2022-12-13T10:07:59;3.60;99.90
63802;DHT22;49949;43.060;25.624;2022-12-13T10:10:28;3.50;99.90
63802;DHT22;49949;43.060;25.624;2022-12-13T10:13:09;3.50;99.90
63802;DHT22;49949;43.060;25.624;2022-12-13T10:15:40;3.60;99.90
63802;DHT22;49949;43.060;25.624;2022-12-13T10:18:11;3.60;99.90
63802;DHT22;49949;43.060;25.624;2022-12-13T10:20:40;3.70;99.90
63802;DHT22;49949;43.060;25.624;2022-12-13T10:23:05;3.60;99.90
63802;DHT22;49949;43.060;25.624;2022-12-13T10:25:45;3.70;99.90
63802;DHT22;49949;43.060;25.624;2022-12-13T10:28:11;3.70;99.90
63802;DHT22;49949;43.060;25.624;2022-12-13T10:30:41;3.80;99.90
63802;DHT22;49949;43.060;25.624;2022-12-13T10:36:15;3.70;99.30
63802;DHT22;49949;43.060;25.624;2022-12-13T10:38:54;3.80;99.90
63802;DHT22;49949;43.060;25.624;2022-12-13T10:41:37;4.00;99.90
63802;DHT22;49949;43.060;25.624;2022-12-13T10:44:16;4.00;99.90
63802;DHT22;49949;43.060;25.624;2022-12-13T10:46:51;4.00;99.90
63802;DHT22;49949;43.060;25.624;2022-12-13T10:49:22;4.10;99.90
63802;DHT22;49949;43.060;25.624;2022-12-13T10:51:49;4.20;99.90
63802;DHT22;49949;43.060;25.624;2022-12-13T10:54:28;4.20;99.90
63802;DHT22;49949;43.060;25.624;2022-12-13T10:56:55;4.30;99.90
63802;DHT22;49949;43.060;25.624;2022-12-13T11:01:50;4.20;99.90
63802;DHT22;49949;43.060;25.624;2022-12-13T11:04:29;4.20;99.90
63802;DHT22;49949;43.060;25.624;2022-12-13T11:06:57;4.30;99.90
63802;DHT22;49949;43.060;25.624;2022-12-13T11:11:54;4.10;99.90
63802;DHT22;49949;43.060;25.624;2022-12-13T11:14:23;4.00;99.90
63802;DHT22;49949;43.060;25.624;2022-12-13T11:17:15;4.00;99.90
63802;DHT22;49949;43.060;25.624;2022-12-13T11:19:52;4.00;99.90
63802;DHT22;49949;43.060;25.624;2022-12-13T11:22:25;4.00;99.90
63802;DHT22;49949;43.060;25.624;2022-12-13T11:30:35;4.00;99.90
63802;DHT22;49949;43.060;25.624;2022-12-13T11:38:27;3.80;99.80
63802;DHT22;49949;43.060;25.624;2022-12-13T11:41:14;3.90;99.90
63802;DHT22;49949;43.060;25.624;2022-12-13T11:43:56;3.90;99.10
63802;DHT22;49949;43.060;25.624;2022-12-13T11:46:42;4.00;99.90
63802;DHT22;49949;43.060;25.624;2022-12-13T11:49:14;3.90;99.90
63802;DHT22;49949;43.060;25.624;2022-12-13T11:52:11;3.90;96.00
63802;DHT22;49949;43.060;25.624;2022-12-13T11:54:59;3.80;99.50
63802;DHT22;49949;43.060;25.624;2022-12-13T11:57:51;3.90;99.90
63802;DHT22;49949;43.060;25.624;2022-12-13T12:00:34;3.90;99.90
63802;DHT22;49949;43.060;25.624;2022-12-13T12:05:53;3.70;94.70
63802;DHT22;49949;43.060;25.624;2022-12-13T12:10:46;3.70;99.90
63802;DHT22;49949;43.060;25.624;2022-12-13T12:13:20;3.80;99.90
63802;DHT22;49949;43.060;25.624;2022-12-13T12:18:25;3.60;99.90
63802;DHT22;49949;43.060;25.624;2022-12-13T12:21:07;3.60;99.90
63802;DHT22;49949;43.060;25.624;2022-12-13T12:24:05;3.70;99.90
63802;DHT22;49949;43.060;25.624;2022-12-13T12:32:09;3.70;99.90
63802;DHT22;49949;43.060;25.624;2022-12-13T12:34:51;3.60;99.90
63802;DHT22;49949;43.060;25.624;2022-12-13T12:40:10;3.60;97.90
63802;DHT22;49949;43.060;25.624;2022-12-13T12:56:49;3.50;93.70
63802;DHT22;49949;43.060;25.624;2022-12-13T13:00:09;3.50;99.90
63802;DHT22;49949;43.060;25.624;2022-12-13T13:05:19;3.50;99.90
63802;DHT22;49949;43.060;25.624;2022-12-13T13:07:49;3.40;99.90
63802;DHT22;49949;43.060;25.624;2022-12-13T13:10:19;3.40;99.90
63802;DHT22;49949;43.060;25.624;2022-12-13T13:12:45;3.30;99.90
63802;DHT22;49949;43.060;25.624;2022-12-13T13:15:51;3.30;99.90
63802;DHT22;49949;43.060;25.624;2022-12-13T13:26:38;3.10;95.50
63802;DHT22;49949;43.060;25.624;2022-12-13T13:34:27;2.80;98.40
63802;DHT22;49949;43.060;25.624;2022-12-13T13:36:53;2.80;99.90
63802;DHT22;49949;43.060;25.624;2022-12-13T13:42:07;2.70;98.10
63802;DHT22;49949;43.060;25.624;2022-12-13T13:55:28;2.40;99.70
63802;DHT22;49949;43.060;25.624;2022-12-13T14:20:53;1.70;99.90
63802;DHT22;49949;43.060;25.624;2022-12-13T14:23:46;1.60;99.90
63802;DHT22;49949;43.060;25.624;2022-12-13T14:29:15;1.40;99.90
63802;DHT22;49949;43.060;25.624;2022-12-13T14:31:46;1.30;99.90
63802;DHT22;49949;43.060;25.624;2022-12-13T14:34:24;1.20;99.90
63802;DHT22;49949;43.060;25.624;2022-12-13T14:37:01;1.10;99.90
63802;DHT22;49949;43.060;25.624;2022-12-13T14:39:28;0.90;99.90
63802;DHT22;49949;43.060;25.624;2022-12-13T14:41:57;0.80;99.90
63802;DHT22;49949;43.060;25.624;2022-12-13T14:44:31;0.70;99.90
63802;DHT22;49949;43.060;25.624;2022-12-13T14:47:03;0.50;99.90
63802;DHT22;49949;43.060;25.624;2022-12-13T14:49:35;0.40;99.90
63802;DHT22;49949;43.060;25.624;2022-12-13T14:52:13;0.30;99.90
63802;DHT22;49949;43.060;25.624;2022-12-13T14:54:51;0.10;99.90
63802;DHT22;49949;43.060;25.624;2022-12-13T14:57:20;0.00;99.90
63802;DHT22;49949;43.060;25.624;2022-12-13T14:59:47;-0.20;99.90
63802;DHT22;49949;43.060;25.624;2022-12-13T15:02:16;-0.30;99.90
63802;DHT22;49949;43.060;25.624;2022-12-13T15:04:42;-0.40;99.90
63802;DHT22;49949;43.060;25.624;2022-12-13T15:07:38;-0.50;99.90
63802;DHT22;49949;43.060;25.624;2022-12-13T15:10:20;-0.60;99.90
63802;DHT22;49949;43.060;25.624;2022-12-13T15:12:47;-0.70;99.90
63802;DHT22;49949;43.060;25.624;2022-12-13T15:15:25;-0.80;99.90
63802;DHT22;49949;43.060;25.624;2022-12-13T15:20:40;-0.90;99.90
63802;DHT22;49949;43.060;25.624;2022-12-13T15:28:42;-1.10;99.90
63802;DHT22;49949;43.060;25.624;2022-12-13T15:31:08;-1.10;99.90
63802;DHT22;49949;43.060;25.624;2022-12-13T15:33:35;-1.10;99.90
63802;DHT22;49949;43.060;25.624;2022-12-13T15:36:17;-1.20;99.90
63802;DHT22;49949;43.060;25.624;2022-12-13T15:41:30;-1.30;99.90
63802;DHT22;49949;43.060;25.624;2022-12-13T15:44:00;-1.20;99.90
63802;DHT22;49949;43.060;25.624;2022-12-13T15:46:31;-1.30;99.90
63802;DHT22;49949;43.060;25.624;2022-12-13T15:49:00;-1.30;99.90
63802;DHT22;49949;43.060;25.624;2022-12-13T15:51:27;-1.30;99.90
63802;DHT22;49949;43.060;25.624;2022-12-13T15:54:17;-1.30;99.90
63802;DHT22;49949;43.060;25.624;2022-12-13T15:57:10;-1.30;99.90
63802;DHT22;49949;43.060;25.624;2022-12-13T15:59:38;-1.40;99.90
63802;DHT22;49949;43.060;25.624;2022-12-13T16:02:20;-1.50;99.90
63802;DHT22;49949;43.060;25.624;2022-12-13T16:04:47;-1.50;99.90
63802;DHT22;49949;43.060;25.624;2022-12-13T16:07:26;-1.50;99.90
63802;DHT22;49949;43.060;25.624;2022-12-13T16:09:55;-1.40;99.90
63802;DHT22;49949;43.060;25.624;2022-12-13T16:12:42;-1.50;99.90
63802;DHT22;49949;43.060;25.624;2022-12-13T16:15:20;-1.50;99.90
63802;DHT22;49949;43.060;25.624;2022-12-13T16:17:51;-1.60;99.90
63802;DHT22;49949;43.060;25.624;2022-12-13T16:20:18;-1.70;99.90
63802;DHT22;49949;43.060;25.624;2022-12-13T16:22:45;-1.70;99.90
63802;DHT22;49949;43.060;25.624;2022-12-13T16:25:15;-1.70;99.90
63802;DHT22;49949;43.060;25.624;2022-12-13T16:27:41;-1.70;99.90
63802;DHT22;49949;43.060;25.624;2022-12-13T16:33:24;-1.80;99.90
63802;DHT22;49949;43.060;25.624;2022-12-13T16:35:50;-1.90;99.90
63802;DHT22;49949;43.060;25.624;2022-12-13T16:38:16;-1.90;99.90
63802;DHT22;49949;43.060;25.624;2022-12-13T16:40:43;-1.90;99.90
63802;DHT22;49949;43.060;25.624;2022-12-13T16:43:16;-2.00;99.90
63802;DHT22;49949;43.060;25.624;2022-12-13T16:45:44;-1.90;99.90
63802;DHT22;49949;43.060;25.624;2022-12-13T16:48:12;-1.90;99.90
63802;DHT22;49949;43.060;25.624;2022-12-13T16:50:42;-1.90;99.90
63802;DHT22;49949;43.060;25.624;2022-12-13T16:53:08;-1.90;99.90
63802;DHT22;49949;43.060;25.624;2022-12-13T16:55:34;-2.00;99.90
63802;DHT22;49949;43.060;25.624;2022-12-13T16:58:05;-2.00;99.90
63802;DHT22;49949;43.060;25.624;2022-12-13T17:00:32;-2.10;99.90
63802;DHT22;49949;43.060;25.624;2022-12-13T17:02:58;-2.20;99.90
63802;DHT22;49949;43.060;25.624;2022-12-13T17:05:26;-2.20;99.90
63802;DHT22;49949;43.060;25.624;2022-12-13T17:07:52;-2.20;99.90
63802;DHT22;49949;43.060;25.624;2022-12-13T17:10:18;-2.20;99.90
63802;DHT22;49949;43.060;25.624;2022-12-13T17:12:44;-2.20;99.90
63802;DHT22;49949;43.060;25.624;2022-12-13T17:15:11;-2.30;99.90
63802;DHT22;49949;43.060;25.624;2022-12-13T17:17:42;-2.20;99.90
63802;DHT22;49949;43.060;25.624;2022-12-13T17:20:09;-2.20;99.90
63802;DHT22;49949;43.060;25.624;2022-12-13T17:22:36;-2.30;99.90
63802;DHT22;49949;43.060;25.624;2022-12-13T17:25:03;-2.30;99.90
63802;DHT22;49949;43.060;25.624;2022-12-13T17:27:30;-2.40;99.90
63802;DHT22;49949;43.060;25.624;2022-12-13T17:29:56;-2.30;99.90
63802;DHT22;49949;43.060;25.624;2022-12-13T17:32:22;-2.30;99.90
63802;DHT22;49949;43.060;25.624;2022-12-13T17:34:50;-2.30;99.90
63802;DHT22;49949;43.060;25.624;2022-12-13T17:37:16;-2.40;99.90
63802;DHT22;49949;43.060;25.624;2022-12-13T17:39:42;-2.50;99.90
63802;DHT22;49949;43.060;25.624;2022-12-13T17:42:08;-2.50;99.90
63802;DHT22;49949;43.060;25.624;2022-12-13T17:44:34;-2.60;99.90
63802;DHT22;49949;43.060;25.624;2022-12-13T17:47:00;-2.70;99.90
63802;DHT22;49949;43.060;25.624;2022-12-13T17:49:26;-2.80;99.90
63802;DHT22;49949;43.060;25.624;2022-12-13T17:51:52;-2.80;99.90
63802;DHT22;49949;43.060;25.624;2022-12-13T17:54:19;-2.70;99.90
63802;DHT22;49949;43.060;25.624;2022-12-13T17:56:45;-2.90;99.90
63802;DHT22;49949;43.060;25.624;2022-12-13T17:59:12;-2.90;99.90
63802;DHT22;49949;43.060;25.624;2022-12-13T18:01:39;-2.90;99.90
63802;DHT22;49949;43.060;25.624;2022-12-13T18:04:06;-2.90;99.90
63802;DHT22;49949;43.060;25.624;2022-12-13T18:06:31;-3.00;99.90
63802;DHT22;49949;43.060;25.624;2022-12-13T18:08:57;-3.10;99.90